sensor_id;sensor_type;location;lat;lon;timestamp;temperature;humidity
1283;DHT22;634;48.810;9.148;2022-09-03T00:02:17;19.60;61.30
1283;DHT22;634;48.810;9.148;2022-09-03T00:04:54;19.70;61.20
1283;DHT22;634;48.810;9.148;2022-09-03T00:07:33;19.90;60.80
1283;DHT22;634;48.810;9.148;2022-09-03T00:10:10;20.10;60.40
1283;DHT22;634;48.810;9.148;2022-09-03T00:12:43;20.10;59.80
1283;DHT22;634;48.810;9.148;2022-09-03T00:15:14;20.20;60.00
1283;DHT22;634;48.810;9.148;2022-09-03T00:17:49;20.20;59.30
1283;DHT22;634;48.810;9.148;2022-09-03T00:20:21;20.20;59.20
1283;DHT22;634;48.810;9.148;2022-09-03T00:22:53;20.30;58.90
1283;DHT22;634;48.810;9.148;2022-09-03T00:25:36;20.30;58.60
1283;DHT22;634;48.810;9.148;2022-09-03T00:28:14;20.40;58.50
1283;DHT22;634;48.810;9.148;2022-09-03T00:30:47;20.40;58.10
1283;DHT22;634;48.810;9.148;2022-09-03T00:33:25;20.30;58.70
1283;DHT22;634;48.810;9.148;2022-09-03T00:36:05;20.40;58.20
1283;DHT22;634;48.810;9.148;2022-09-03T00:38:41;20.40;59.00
1283;DHT22;634;48.810;9.148;2022-09-03T00:41:22;20.20;59.60
1283;DHT22;634;48.810;9.148;2022-09-03T00:44:09;20.20;60.00
1283;DHT22;634;48.810;9.148;2022-09-03T00:46:48;20.30;59.70
1283;DHT22;634;48.810;9.148;2022-09-03T00:49:31;20.30;60.20
1283;DHT22;634;48.810;9.148;2022-09-03T00:52:11;20.30;61.10
1283;DHT22;634;48.810;9.148;2022-09-03T00:54:48;20.20;61.40
1283;DHT22;634;48.810;9.148;2022-09-03T00:57:32;20.10;61.90
1283;DHT22;634;48.810;9.148;2022-09-03T01:00:08;19.80;62.50
1283;DHT22;634;48.810;9.148;2022-09-03T01:02:50;19.70;63.10
1283;DHT22;634;48.810;9.148;2022-09-03T01:05:38;19.50;63.60
1283;DHT22;634;48.810;9.148;2022-09-03T01:08:26;19.60;63.20
1283;DHT22;634;48.810;9.148;2022-09-03T01:11:08;19.50;65.30
1283;DHT22;634;48.810;9.148;2022-09-03T01:13:52;19.60;66.00
1283;DHT22;634;48.810;9.148;2022-09-03T01:16:29;19.70;64.70
1283;DHT22;634;48.810;9.148;2022-09-03T01:19:09;19.70;63.50
1283;DHT22;634;48.810;9.148;2022-09-03T01:22:00;19.70;64.00
1283;DHT22;634;48.810;9.148;2022-09-03T01:25:05;19.90;63.20
1283;DHT22;634;48.810;9.148;2022-09-03T01:27:45;20.00;62.80
1283;DHT22;634;48.810;9.148;2022-09-03T01:30:24;19.90;63.50
1283;DHT22;634;48.810;9.148;2022-09-03T01:33:00;19.80;63.80
1283;DHT22;634;48.810;9.148;2022-09-03T01:35:36;19.60;65.30
1283;DHT22;634;48.810;9.148;2022-09-03T01:38:17;19.60;65.90
1283;DHT22;634;48.810;9.148;2022-09-03T01:40:55;19.40;66.30
1283;DHT22;634;48.810;9.148;2022-09-03T01:43:56;19.20;67.00
1283;DHT22;634;48.810;9.148;2022-09-03T01:46:36;19.30;65.50
1283;DHT22;634;48.810;9.148;2022-09-03T01:49:14;19.50;65.30
1283;DHT22;634;48.810;9.148;2022-09-03T01:51:52;19.60;65.90
1283;DHT22;634;48.810;9.148;2022-09-03T01:54:43;19.70;65.90
1283;DHT22;634;48.810;9.148;2022-09-03T01:57:32;19.70;66.50
1283;DHT22;634;48.810;9.148;2022-09-03T02:00:08;19.50;67.30
1283;DHT22;634;48.810;9.148;2022-09-03T02:02:43;19.30;65.80
1283;DHT22;634;48.810;9.148;2022-09-03T02:05:14;19.20;67.00
1283;DHT22;634;48.810;9.148;2022-09-03T02:07:46;19.10;67.80
1283;DHT22;634;48.810;9.148;2022-09-03T02:10:20;19.20;68.30
1283;DHT22;634;48.810;9.148;2022-09-03T02:12:53;19.20;69.50
1283;DHT22;634;48.810;9.148;2022-09-03T02:15:26;19.00;69.40
1283;DHT22;634;48.810;9.148;2022-09-03T02:18:02;19.00;69.40
1283;DHT22;634;48.810;9.148;2022-09-03T02:20:32;19.20;67.10
1283;DHT22;634;48.810;9.148;2022-09-03T02:23:04;19.10;67.00
1283;DHT22;634;48.810;9.148;2022-09-03T02:25:37;19.30;65.70
1283;DHT22;634;48.810;9.148;2022-09-03T02:28:08;19.40;66.60
1283;DHT22;634;48.810;9.148;2022-09-03T02:30:40;19.50;65.60
1283;DHT22;634;48.810;9.148;2022-09-03T02:33:12;19.60;64.70
1283;DHT22;634;48.810;9.148;2022-09-03T02:35:44;19.80;63.50
1283;DHT22;634;48.810;9.148;2022-09-03T02:38:15;19.90;63.70
1283;DHT22;634;48.810;9.148;2022-09-03T02:40:45;19.90;64.60
1283;DHT22;634;48.810;9.148;2022-09-03T02:43:18;19.90;65.50
1283;DHT22;634;48.810;9.148;2022-09-03T02:45:56;19.80;66.40
1283;DHT22;634;48.810;9.148;2022-09-03T02:48:30;19.70;66.80
1283;DHT22;634;48.810;9.148;2022-09-03T02:51:00;19.70;67.40
1283;DHT22;634;48.810;9.148;2022-09-03T02:53:29;19.60;68.70
1283;DHT22;634;48.810;9.148;2022-09-03T02:56:00;19.30;68.20
1283;DHT22;634;48.810;9.148;2022-09-03T02:58:30;19.10;67.50
1283;DHT22;634;48.810;9.148;2022-09-03T03:00:59;18.90;69.70
1283;DHT22;634;48.810;9.148;2022-09-03T03:03:32;18.80;70.70
1283;DHT22;634;48.810;9.148;2022-09-03T03:06:03;18.80;71.50
1283;DHT22;634;48.810;9.148;2022-09-03T03:08:34;18.70;71.50
1283;DHT22;634;48.810;9.148;2022-09-03T03:11:04;18.60;71.50
1283;DHT22;634;48.810;9.148;2022-09-03T03:13:33;18.50;72.00
1283;DHT22;634;48.810;9.148;2022-09-03T03:16:05;18.50;72.50
1283;DHT22;634;48.810;9.148;2022-09-03T03:18:37;18.30;72.50
1283;DHT22;634;48.810;9.148;2022-09-03T03:21:09;18.30;73.50
1283;DHT22;634;48.810;9.148;2022-09-03T03:23:39;18.40;72.90
1283;DHT22;634;48.810;9.148;2022-09-03T03:26:11;18.40;72.20
1283;DHT22;634;48.810;9.148;2022-09-03T03:28:41;18.40;72.20
1283;DHT22;634;48.810;9.148;2022-09-03T03:31:12;18.40;71.70
1283;DHT22;634;48.810;9.148;2022-09-03T03:33:49;18.40;72.60
1283;DHT22;634;48.810;9.148;2022-09-03T03:36:19;18.20;73.50
1283;DHT22;634;48.810;9.148;2022-09-03T03:38:53;18.20;74.30
1283;DHT22;634;48.810;9.148;2022-09-03T03:41:24;18.20;74.30
1283;DHT22;634;48.810;9.148;2022-09-03T03:43:55;18.20;74.90
1283;DHT22;634;48.810;9.148;2022-09-03T03:46:28;18.10;75.20
1283;DHT22;634;48.810;9.148;2022-09-03T03:49:01;18.10;76.10
1283;DHT22;634;48.810;9.148;2022-09-03T03:51:35;18.00;76.50
1283;DHT22;634;48.810;9.148;2022-09-03T03:54:06;18.20;76.80
1283;DHT22;634;48.810;9.148;2022-09-03T03:56:35;18.30;76.00
1283;DHT22;634;48.810;9.148;2022-09-03T03:59:05;18.30;75.60
1283;DHT22;634;48.810;9.148;2022-09-03T04:01:34;18.40;75.80
1283;DHT22;634;48.810;9.148;2022-09-03T04:04:09;18.40;74.60
1283;DHT22;634;48.810;9.148;2022-09-03T04:06:39;18.40;74.00
1283;DHT22;634;48.810;9.148;2022-09-03T04:09:08;18.50;73.40
1283;DHT22;634;48.810;9.148;2022-09-03T04:11:38;18.40;75.00
1283;DHT22;634;48.810;9.148;2022-09-03T04:14:10;18.50;74.70
1283;DHT22;634;48.810;9.148;2022-09-03T04:16:40;18.50;74.50
1283;DHT22;634;48.810;9.148;2022-09-03T04:19:17;18.50;75.20
1283;DHT22;634;48.810;9.148;2022-09-03T04:21:46;18.40;75.60
1283;DHT22;634;48.810;9.148;2022-09-03T04:24:16;18.40;76.20
1283;DHT22;634;48.810;9.148;2022-09-03T04:26:45;18.50;75.90
1283;DHT22;634;48.810;9.148;2022-09-03T04:29:15;18.60;74.10
1283;DHT22;634;48.810;9.148;2022-09-03T04:31:46;18.70;73.70
1283;DHT22;634;48.810;9.148;2022-09-03T04:34:30;18.80;73.50
1283;DHT22;634;48.810;9.148;2022-09-03T04:37:02;19.00;72.80
1283;DHT22;634;48.810;9.148;2022-09-03T04:39:32;19.00;73.50
1283;DHT22;634;48.810;9.148;2022-09-03T04:42:01;18.80;74.60
1283;DHT22;634;48.810;9.148;2022-09-03T04:44:30;18.60;75.40
1283;DHT22;634;48.810;9.148;2022-09-03T04:47:05;18.60;75.90
1283;DHT22;634;48.810;9.148;2022-09-03T04:49:37;18.50;77.50
1283;DHT22;634;48.810;9.148;2022-09-03T04:52:07;18.50;77.40
1283;DHT22;634;48.810;9.148;2022-09-03T04:54:37;18.50;77.70
1283;DHT22;634;48.810;9.148;2022-09-03T04:57:06;18.60;78.00
1283;DHT22;634;48.810;9.148;2022-09-03T04:59:36;18.40;78.40
1283;DHT22;634;48.810;9.148;2022-09-03T05:02:06;18.50;78.30
1283;DHT22;634;48.810;9.148;2022-09-03T05:04:38;18.60;77.50
1283;DHT22;634;48.810;9.148;2022-09-03T05:07:08;18.60;77.50
1283;DHT22;634;48.810;9.148;2022-09-03T05:09:37;18.50;78.40
1283;DHT22;634;48.810;9.148;2022-09-03T05:12:07;18.40;78.90
1283;DHT22;634;48.810;9.148;2022-09-03T05:14:38;18.40;79.50
1283;DHT22;634;48.810;9.148;2022-09-03T05:17:07;18.40;80.00
1283;DHT22;634;48.810;9.148;2022-09-03T05:19:40;18.30;81.10
1283;DHT22;634;48.810;9.148;2022-09-03T05:22:09;18.20;81.50
1283;DHT22;634;48.810;9.148;2022-09-03T05:24:38;18.20;81.50
1283;DHT22;634;48.810;9.148;2022-09-03T05:27:08;18.40;82.10
1283;DHT22;634;48.810;9.148;2022-09-03T05:29:38;18.70;79.70
1283;DHT22;634;48.810;9.148;2022-09-03T05:32:07;18.80;78.20
1283;DHT22;634;48.810;9.148;2022-09-03T05:34:40;19.00;76.90
1283;DHT22;634;48.810;9.148;2022-09-03T05:37:10;19.10;76.10
1283;DHT22;634;48.810;9.148;2022-09-03T05:39:39;19.20;75.80
1283;DHT22;634;48.810;9.148;2022-09-03T05:42:11;19.30;75.10
1283;DHT22;634;48.810;9.148;2022-09-03T05:44:41;19.40;74.60
1283;DHT22;634;48.810;9.148;2022-09-03T05:47:10;19.40;72.60
1283;DHT22;634;48.810;9.148;2022-09-03T05:49:43;19.50;72.60
1283;DHT22;634;48.810;9.148;2022-09-03T05:52:12;19.60;72.00
1283;DHT22;634;48.810;9.148;2022-09-03T05:54:42;19.70;71.10
1283;DHT22;634;48.810;9.148;2022-09-03T05:57:12;19.70;71.50
1283;DHT22;634;48.810;9.148;2022-09-03T05:59:41;19.80;72.60
1283;DHT22;634;48.810;9.148;2022-09-03T06:02:13;19.80;72.70
1283;DHT22;634;48.810;9.148;2022-09-03T06:04:45;19.80;73.70
1283;DHT22;634;48.810;9.148;2022-09-03T06:07:16;19.80;73.80
1283;DHT22;634;48.810;9.148;2022-09-03T06:09:46;19.70;74.10
1283;DHT22;634;48.810;9.148;2022-09-03T06:12:15;19.70;73.30
1283;DHT22;634;48.810;9.148;2022-09-03T06:14:45;19.80;74.50
1283;DHT22;634;48.810;9.148;2022-09-03T06:17:14;19.90;74.30
1283;DHT22;634;48.810;9.148;2022-09-03T06:19:46;20.00;73.10
1283;DHT22;634;48.810;9.148;2022-09-03T06:22:16;19.90;72.50
1283;DHT22;634;48.810;9.148;2022-09-03T06:24:45;20.00;72.80
1283;DHT22;634;48.810;9.148;2022-09-03T06:27:15;20.10;72.30
1283;DHT22;634;48.810;9.148;2022-09-03T06:29:48;20.10;72.70
1283;DHT22;634;48.810;9.148;2022-09-03T06:32:18;20.00;74.00
1283;DHT22;634;48.810;9.148;2022-09-03T06:34:50;19.90;73.70
1283;DHT22;634;48.810;9.148;2022-09-03T06:37:20;20.10;73.80
1283;DHT22;634;48.810;9.148;2022-09-03T06:39:49;20.00;74.20
1283;DHT22;634;48.810;9.148;2022-09-03T06:42:22;20.00;73.20
1283;DHT22;634;48.810;9.148;2022-09-03T06:44:52;20.00;72.80
1283;DHT22;634;48.810;9.148;2022-09-03T06:47:22;20.00;73.00
1283;DHT22;634;48.810;9.148;2022-09-03T06:49:55;20.00;73.70
1283;DHT22;634;48.810;9.148;2022-09-03T06:52:25;20.10;73.60
1283;DHT22;634;48.810;9.148;2022-09-03T06:54:55;20.00;74.60
1283;DHT22;634;48.810;9.148;2022-09-03T06:57:24;20.00;75.10
1283;DHT22;634;48.810;9.148;2022-09-03T06:59:55;19.90;76.00
1283;DHT22;634;48.810;9.148;2022-09-03T07:02:24;20.00;76.70
1283;DHT22;634;48.810;9.148;2022-09-03T07:04:57;19.90;77.60
1283;DHT22;634;48.810;9.148;2022-09-03T07:07:27;19.90;78.20
1283;DHT22;634;48.810;9.148;2022-09-03T07:09:56;19.90;78.90
1283;DHT22;634;48.810;9.148;2022-09-03T07:12:26;19.90;79.10
1283;DHT22;634;48.810;9.148;2022-09-03T07:14:58;19.90;79.80
1283;DHT22;634;48.810;9.148;2022-09-03T07:17:28;20.10;79.90
1283;DHT22;634;48.810;9.148;2022-09-03T07:20:00;20.20;79.10
1283;DHT22;634;48.810;9.148;2022-09-03T07:22:29;20.10;78.60
1283;DHT22;634;48.810;9.148;2022-09-03T07:25:01;20.20;80.40
1283;DHT22;634;48.810;9.148;2022-09-03T07:27:30;20.20;79.90
1283;DHT22;634;48.810;9.148;2022-09-03T07:30:00;20.30;80.30
1283;DHT22;634;48.810;9.148;2022-09-03T07:32:29;20.30;81.60
1283;DHT22;634;48.810;9.148;2022-09-03T07:35:01;20.40;81.00
1283;DHT22;634;48.810;9.148;2022-09-03T07:37:31;20.50;80.70
1283;DHT22;634;48.810;9.148;2022-09-03T07:40:01;20.60;79.60
1283;DHT22;634;48.810;9.148;2022-09-03T07:42:31;20.90;79.10
1283;DHT22;634;48.810;9.148;2022-09-03T07:45:01;21.00;78.30
1283;DHT22;634;48.810;9.148;2022-09-03T07:47:35;21.10;77.70
1283;DHT22;634;48.810;9.148;2022-09-03T07:50:10;21.40;77.10
1283;DHT22;634;48.810;9.148;2022-09-03T07:52:41;21.50;76.40
1283;DHT22;634;48.810;9.148;2022-09-03T07:55:11;21.50;76.40
1283;DHT22;634;48.810;9.148;2022-09-03T07:57:40;21.70;75.90
1283;DHT22;634;48.810;9.148;2022-09-03T08:00:11;21.90;74.70
1283;DHT22;634;48.810;9.148;2022-09-03T08:02:43;22.00;74.20
1283;DHT22;634;48.810;9.148;2022-09-03T08:05:18;22.10;73.70
1283;DHT22;634;48.810;9.148;2022-09-03T08:07:48;22.10;73.20
1283;DHT22;634;48.810;9.148;2022-09-03T08:10:17;22.20;73.30
1283;DHT22;634;48.810;9.148;2022-09-03T08:12:48;22.20;72.90
1283;DHT22;634;48.810;9.148;2022-09-03T08:15:17;22.20;72.90
1283;DHT22;634;48.810;9.148;2022-09-03T08:17:47;22.30;72.50
1283;DHT22;634;48.810;9.148;2022-09-03T08:20:19;22.40;72.30
1283;DHT22;634;48.810;9.148;2022-09-03T08:22:48;22.60;71.80
1283;DHT22;634;48.810;9.148;2022-09-03T08:25:18;22.70;71.30
1283;DHT22;634;48.810;9.148;2022-09-03T08:27:47;22.90;70.40
1283;DHT22;634;48.810;9.148;2022-09-03T08:30:17;23.10;70.20
1283;DHT22;634;48.810;9.148;2022-09-03T08:32:47;23.40;69.00
1283;DHT22;634;48.810;9.148;2022-09-03T08:35:19;23.80;67.90
1283;DHT22;634;48.810;9.148;2022-09-03T08:37:49;24.30;66.90
1283;DHT22;634;48.810;9.148;2022-09-03T08:40:20;24.70;63.30
1283;DHT22;634;48.810;9.148;2022-09-03T08:43:01;25.10;62.10
1283;DHT22;634;48.810;9.148;2022-09-03T08:45:36;25.40;60.00
1283;DHT22;634;48.810;9.148;2022-09-03T08:48:11;25.20;59.70
1283;DHT22;634;48.810;9.148;2022-09-03T08:50:47;25.10;60.00
1283;DHT22;634;48.810;9.148;2022-09-03T08:53:29;25.20;59.60
1283;DHT22;634;48.810;9.148;2022-09-03T08:56:08;25.30;58.90
1283;DHT22;634;48.810;9.148;2022-09-03T08:58:39;25.30;59.10
1283;DHT22;634;48.810;9.148;2022-09-03T09:01:15;25.30;59.00
1283;DHT22;634;48.810;9.148;2022-09-03T09:04:00;25.40;59.00
1283;DHT22;634;48.810;9.148;2022-09-03T09:06:40;25.20;59.20
1283;DHT22;634;48.810;9.148;2022-09-03T09:09:22;25.20;59.10
1283;DHT22;634;48.810;9.148;2022-09-03T09:12:03;24.90;60.10
1283;DHT22;634;48.810;9.148;2022-09-03T09:14:40;24.90;60.80
1283;DHT22;634;48.810;9.148;2022-09-03T09:17:30;25.00;59.70
1283;DHT22;634;48.810;9.148;2022-09-03T09:20:11;24.90;59.20
1283;DHT22;634;48.810;9.148;2022-09-03T09:22:46;24.80;59.40
1283;DHT22;634;48.810;9.148;2022-09-03T09:25:19;24.60;59.60
1283;DHT22;634;48.810;9.148;2022-09-03T09:27:53;24.60;59.90
1283;DHT22;634;48.810;9.148;2022-09-03T09:30:25;24.50;60.40
1283;DHT22;634;48.810;9.148;2022-09-03T09:32:55;24.40;61.30
1283;DHT22;634;48.810;9.148;2022-09-03T09:35:26;24.40;62.50
1283;DHT22;634;48.810;9.148;2022-09-03T09:38:01;24.90;62.30
1283;DHT22;634;48.810;9.148;2022-09-03T09:40:32;25.60;60.10
1283;DHT22;634;48.810;9.148;2022-09-03T09:43:06;26.50;58.30
1283;DHT22;634;48.810;9.148;2022-09-03T09:45:42;27.40;55.40
1283;DHT22;634;48.810;9.148;2022-09-03T09:48:22;28.20;53.40
1283;DHT22;634;48.810;9.148;2022-09-03T09:51:08;29.10;51.40
1283;DHT22;634;48.810;9.148;2022-09-03T09:53:40;29.50;49.90
1283;DHT22;634;48.810;9.148;2022-09-03T09:56:19;29.90;48.70
1283;DHT22;634;48.810;9.148;2022-09-03T09:59:00;30.10;48.30
1283;DHT22;634;48.810;9.148;2022-09-03T10:01:30;29.50;48.50
1283;DHT22;634;48.810;9.148;2022-09-03T10:04:07;29.20;49.20
1283;DHT22;634;48.810;9.148;2022-09-03T10:06:38;29.10;49.20
1283;DHT22;634;48.810;9.148;2022-09-03T10:09:26;28.70;50.00
1283;DHT22;634;48.810;9.148;2022-09-03T10:12:07;28.00;51.70
1283;DHT22;634;48.810;9.148;2022-09-03T10:14:43;27.50;52.40
1283;DHT22;634;48.810;9.148;2022-09-03T10:17:20;27.30;52.10
1283;DHT22;634;48.810;9.148;2022-09-03T10:19:58;27.10;52.70
1283;DHT22;634;48.810;9.148;2022-09-03T10:22:46;27.00;52.70
1283;DHT22;634;48.810;9.148;2022-09-03T10:25:22;26.70;53.00
1283;DHT22;634;48.810;9.148;2022-09-03T10:27:58;26.70;53.50
1283;DHT22;634;48.810;9.148;2022-09-03T10:30:30;26.70;53.80
1283;DHT22;634;48.810;9.148;2022-09-03T10:33:11;26.80;53.90
1283;DHT22;634;48.810;9.148;2022-09-03T10:35:48;26.70;53.30
1283;DHT22;634;48.810;9.148;2022-09-03T10:38:26;26.90;53.10
1283;DHT22;634;48.810;9.148;2022-09-03T10:41:09;26.90;52.90
1283;DHT22;634;48.810;9.148;2022-09-03T10:44:03;27.40;52.00
1283;DHT22;634;48.810;9.148;2022-09-03T10:46:47;27.80;51.80
1283;DHT22;634;48.810;9.148;2022-09-03T10:49:37;28.00;50.70
1283;DHT22;634;48.810;9.148;2022-09-03T10:52:16;28.40;50.30
1283;DHT22;634;48.810;9.148;2022-09-03T10:54:59;28.70;49.40
1283;DHT22;634;48.810;9.148;2022-09-03T10:57:44;28.80;49.50
1283;DHT22;634;48.810;9.148;2022-09-03T11:00:15;28.70;49.30
1283;DHT22;634;48.810;9.148;2022-09-03T11:06:01;28.80;49.10
1283;DHT22;634;48.810;9.148;2022-09-03T11:08:36;28.30;49.80
1283;DHT22;634;48.810;9.148;2022-09-03T11:11:12;28.00;50.00
1283;DHT22;634;48.810;9.148;2022-09-03T11:13:51;27.90;50.20
1283;DHT22;634;48.810;9.148;2022-09-03T11:16:27;27.60;50.70
1283;DHT22;634;48.810;9.148;2022-09-03T11:19:03;27.50;51.20
1283;DHT22;634;48.810;9.148;2022-09-03T11:21:38;27.10;51.70
1283;DHT22;634;48.810;9.148;2022-09-03T11:24:13;26.70;52.70
1283;DHT22;634;48.810;9.148;2022-09-03T11:26:44;26.50;53.20
1283;DHT22;634;48.810;9.148;2022-09-03T11:29:21;26.30;54.20
1283;DHT22;634;48.810;9.148;2022-09-03T11:31:57;26.40;53.70
1283;DHT22;634;48.810;9.148;2022-09-03T11:34:44;26.30;53.70
1283;DHT22;634;48.810;9.148;2022-09-03T11:37:20;26.30;53.60
1283;DHT22;634;48.810;9.148;2022-09-03T11:39:58;26.00;54.20
1283;DHT22;634;48.810;9.148;2022-09-03T11:42:35;25.90;54.80
1283;DHT22;634;48.810;9.148;2022-09-03T11:45:21;25.90;54.70
1283;DHT22;634;48.810;9.148;2022-09-03T11:47:54;25.90;55.00
1283;DHT22;634;48.810;9.148;2022-09-03T11:50:28;25.70;55.60
1283;DHT22;634;48.810;9.148;2022-09-03T11:53:08;25.70;55.50
1283;DHT22;634;48.810;9.148;2022-09-03T11:55:51;25.70;55.60
1283;DHT22;634;48.810;9.148;2022-09-03T11:58:24;25.40;56.00
1283;DHT22;634;48.810;9.148;2022-09-03T12:00:58;25.20;56.60
1283;DHT22;634;48.810;9.148;2022-09-03T12:03:35;24.90;57.40
1283;DHT22;634;48.810;9.148;2022-09-03T12:06:21;24.80;57.80
1283;DHT22;634;48.810;9.148;2022-09-03T12:09:05;24.80;58.30
1283;DHT22;634;48.810;9.148;2022-09-03T12:11:45;24.50;58.80
1283;DHT22;634;48.810;9.148;2022-09-03T12:14:21;24.50;59.40
1283;DHT22;634;48.810;9.148;2022-09-03T12:17:03;24.20;60.60
1283;DHT22;634;48.810;9.148;2022-09-03T12:19:38;24.00;62.50
1283;DHT22;634;48.810;9.148;2022-09-03T12:22:12;23.90;64.10
1283;DHT22;634;48.810;9.148;2022-09-03T12:24:42;23.90;65.40
1283;DHT22;634;48.810;9.148;2022-09-03T12:27:19;23.90;66.80
1283;DHT22;634;48.810;9.148;2022-09-03T12:29:53;23.70;69.70
1283;DHT22;634;48.810;9.148;2022-09-03T12:32:30;23.50;72.40
1283;DHT22;634;48.810;9.148;2022-09-03T12:35:11;23.50;73.90
1283;DHT22;634;48.810;9.148;2022-09-03T12:37:42;23.20;77.10
1283;DHT22;634;48.810;9.148;2022-09-03T12:40:19;23.00;79.00
1283;DHT22;634;48.810;9.148;2022-09-03T12:42:49;22.30;86.80
1283;DHT22;634;48.810;9.148;2022-09-03T12:45:20;22.10;91.50
1283;DHT22;634;48.810;9.148;2022-09-03T12:47:53;22.10;92.50
1283;DHT22;634;48.810;9.148;2022-09-03T12:50:23;22.10;93.60
1283;DHT22;634;48.810;9.148;2022-09-03T12:52:54;21.90;94.30
1283;DHT22;634;48.810;9.148;2022-09-03T12:55:30;21.80;93.70
1283;DHT22;634;48.810;9.148;2022-09-03T12:58:07;21.60;97.40
1283;DHT22;634;48.810;9.148;2022-09-03T13:00:41;21.80;99.10
1283;DHT22;634;48.810;9.148;2022-09-03T13:03:16;21.90;99.00
1283;DHT22;634;48.810;9.148;2022-09-03T13:05:50;22.00;99.10
1283;DHT22;634;48.810;9.148;2022-09-03T13:08:23;22.00;97.80
1283;DHT22;634;48.810;9.148;2022-09-03T13:10:56;22.00;97.90
1283;DHT22;634;48.810;9.148;2022-09-03T13:13:29;22.20;98.80
1283;DHT22;634;48.810;9.148;2022-09-03T13:16:11;22.30;97.20
1283;DHT22;634;48.810;9.148;2022-09-03T13:18:52;22.30;98.10
1283;DHT22;634;48.810;9.148;2022-09-03T13:21:34;22.10;99.30
1283;DHT22;634;48.810;9.148;2022-09-03T13:24:27;22.00;99.10
1283;DHT22;634;48.810;9.148;2022-09-03T13:27:10;22.00;99.90
1283;DHT22;634;48.810;9.148;2022-09-03T13:29:55;21.80;99.90
1283;DHT22;634;48.810;9.148;2022-09-03T13:32:35;21.90;99.90
1283;DHT22;634;48.810;9.148;2022-09-03T13:35:11;22.20;99.90
1283;DHT22;634;48.810;9.148;2022-09-03T13:37:44;22.40;99.90
1283;DHT22;634;48.810;9.148;2022-09-03T13:40:22;22.40;99.00
1283;DHT22;634;48.810;9.148;2022-09-03T13:43:01;22.70;99.30
1283;DHT22;634;48.810;9.148;2022-09-03T13:45:36;22.90;95.30
1283;DHT22;634;48.810;9.148;2022-09-03T13:48:14;22.80;92.70
1283;DHT22;634;48.810;9.148;2022-09-03T13:51:07;22.70;95.60
1283;DHT22;634;48.810;9.148;2022-09-03T13:53:46;22.50;97.00
1283;DHT22;634;48.810;9.148;2022-09-03T13:56:28;22.20;97.60
1283;DHT22;634;48.810;9.148;2022-09-03T13:59:05;22.10;97.80
1283;DHT22;634;48.810;9.148;2022-09-03T14:01:54;21.90;99.90
1283;DHT22;634;48.810;9.148;2022-09-03T14:04:31;21.80;99.90
1283;DHT22;634;48.810;9.148;2022-09-03T14:07:10;21.50;99.90
1283;DHT22;634;48.810;9.148;2022-09-03T14:09:48;21.40;99.90
1283;DHT22;634;48.810;9.148;2022-09-03T14:12:27;21.50;99.90
1283;DHT22;634;48.810;9.148;2022-09-03T14:15:02;21.40;99.90
1283;DHT22;634;48.810;9.148;2022-09-03T14:17:39;21.30;99.90
1283;DHT22;634;48.810;9.148;2022-09-03T14:20:16;21.30;99.90
1283;DHT22;634;48.810;9.148;2022-09-03T14:22:57;21.30;99.90
1283;DHT22;634;48.810;9.148;2022-09-03T14:25:28;21.30;99.90
1283;DHT22;634;48.810;9.148;2022-09-03T14:28:13;21.40;99.90
1283;DHT22;634;48.810;9.148;2022-09-03T14:30:48;21.50;99.90
1283;DHT22;634;48.810;9.148;2022-09-03T14:33:26;21.50;99.90
1283;DHT22;634;48.810;9.148;2022-09-03T14:36:07;21.60;99.90
1283;DHT22;634;48.810;9.148;2022-09-03T14:39:29;21.60;99.90
1283;DHT22;634;48.810;9.148;2022-09-03T14:42:39;21.80;99.90
1283;DHT22;634;48.810;9.148;2022-09-03T14:45:47;22.10;99.90
1283;DHT22;634;48.810;9.148;2022-09-03T14:48:43;22.30;99.90
1283;DHT22;634;48.810;9.148;2022-09-03T14:51:25;22.60;99.90
1283;DHT22;634;48.810;9.148;2022-09-03T14:54:29;22.70;98.90
1283;DHT22;634;48.810;9.148;2022-09-03T14:57:18;22.90;96.70
1283;DHT22;634;48.810;9.148;2022-09-03T15:00:03;23.20;96.60
1283;DHT22;634;48.810;9.148;2022-09-03T15:02:57;23.40;93.30
1283;DHT22;634;48.810;9.148;2022-09-03T15:06:01;23.60;92.20
1283;DHT22;634;48.810;9.148;2022-09-03T15:08:45;23.10;91.90
1283;DHT22;634;48.810;9.148;2022-09-03T15:11:22;22.90;92.20
1283;DHT22;634;48.810;9.148;2022-09-03T15:13:57;22.80;94.00
1283;DHT22;634;48.810;9.148;2022-09-03T15:16:39;22.80;93.50
1283;DHT22;634;48.810;9.148;2022-09-03T15:19:18;22.80;94.60
1283;DHT22;634;48.810;9.148;2022-09-03T15:22:07;23.10;93.60
1283;DHT22;634;48.810;9.148;2022-09-03T15:24:49;23.40;91.80
1283;DHT22;634;48.810;9.148;2022-09-03T15:27:42;23.60;90.70
1283;DHT22;634;48.810;9.148;2022-09-03T15:30:17;23.70;89.00
1283;DHT22;634;48.810;9.148;2022-09-03T15:33:01;23.70;87.40
1283;DHT22;634;48.810;9.148;2022-09-03T15:35:51;23.90;86.60
1283;DHT22;634;48.810;9.148;2022-09-03T15:38:36;23.90;84.80
1283;DHT22;634;48.810;9.148;2022-09-03T15:41:16;23.90;85.00
1283;DHT22;634;48.810;9.148;2022-09-03T15:43:50;23.90;86.60
1283;DHT22;634;48.810;9.148;2022-09-03T15:46:38;24.00;86.20
1283;DHT22;634;48.810;9.148;2022-09-03T15:49:28;24.00;83.50
1283;DHT22;634;48.810;9.148;2022-09-03T15:52:09;23.90;83.90
1283;DHT22;634;48.810;9.148;2022-09-03T15:54:49;23.80;83.80
1283;DHT22;634;48.810;9.148;2022-09-03T15:57:27;23.80;84.20
1283;DHT22;634;48.810;9.148;2022-09-03T16:00:05;23.90;84.30
1283;DHT22;634;48.810;9.148;2022-09-03T16:02:41;23.80;85.00
1283;DHT22;634;48.810;9.148;2022-09-03T16:05:16;23.50;88.10
1283;DHT22;634;48.810;9.148;2022-09-03T16:08:06;23.30;90.50
1283;DHT22;634;48.810;9.148;2022-09-03T16:10:51;23.30;90.90
1283;DHT22;634;48.810;9.148;2022-09-03T16:13:46;23.40;90.90
1283;DHT22;634;48.810;9.148;2022-09-03T16:16:23;23.40;90.90
1283;DHT22;634;48.810;9.148;2022-09-03T16:19:08;23.50;90.50
1283;DHT22;634;48.810;9.148;2022-09-03T16:21:46;23.60;90.60
1283;DHT22;634;48.810;9.148;2022-09-03T16:24:21;23.60;90.00
1283;DHT22;634;48.810;9.148;2022-09-03T16:26:56;23.60;90.80
1283;DHT22;634;48.810;9.148;2022-09-03T16:29:29;23.50;91.30
1283;DHT22;634;48.810;9.148;2022-09-03T16:32:15;23.50;91.60
1283;DHT22;634;48.810;9.148;2022-09-03T16:35:00;23.60;91.30
1283;DHT22;634;48.810;9.148;2022-09-03T16:37:37;23.50;91.40
1283;DHT22;634;48.810;9.148;2022-09-03T16:40:15;23.40;91.70
1283;DHT22;634;48.810;9.148;2022-09-03T16:42:53;23.40;93.80
1283;DHT22;634;48.810;9.148;2022-09-03T16:45:31;23.20;95.60
1283;DHT22;634;48.810;9.148;2022-09-03T16:48:25;23.10;95.70
1283;DHT22;634;48.810;9.148;2022-09-03T16:51:07;23.10;95.60
1283;DHT22;634;48.810;9.148;2022-09-03T16:53:54;23.10;95.50
1283;DHT22;634;48.810;9.148;2022-09-03T16:56:53;22.90;99.70
1283;DHT22;634;48.810;9.148;2022-09-03T17:02:55;22.50;99.90
1283;DHT22;634;48.810;9.148;2022-09-03T17:06:04;22.50;99.90
1283;DHT22;634;48.810;9.148;2022-09-03T17:08:48;22.50;99.90
1283;DHT22;634;48.810;9.148;2022-09-03T17:11:36;22.50;99.90
1283;DHT22;634;48.810;9.148;2022-09-03T17:17:36;22.40;99.90
1283;DHT22;634;48.810;9.148;2022-09-03T17:20:13;22.30;99.90
1283;DHT22;634;48.810;9.148;2022-09-03T17:22:54;22.20;99.90
1283;DHT22;634;48.810;9.148;2022-09-03T17:25:35;22.30;99.90
1283;DHT22;634;48.810;9.148;2022-09-03T17:28:14;22.30;99.90